Time;durP1;ratioP1;P1;durP2;ratioP2;P2;SDS_P1;SDS_P2;PMS_P1;PMS_P2;Temp;Humidity;BMP_temperature;BMP_pressure;BME280_temperature;BME280_humidity;BME280_pressure;Samples;Min_cycle;Max_cycle;Signal;HPM_P1;HPM_P2
2022/10/02 00:02:22;;;;;;;0.10;0.10;;;10.70;99.90;;;;;;6220313;23;20023;-88
2022/10/02 00:04:58;;;;;;;0.32;0.28;;;10.70;99.90;;;;;;6219601;23;20031;-88
2022/10/02 00:07:33;;;;;;;2.08;0.68;;;10.70;99.90;;;;;;6219878;23;20012;-88
2022/10/02 00:10:08;;;;;;;0.30;0.22;;;10.80;99.90;;;;;;6219916;23;20091;-88
2022/10/02 00:12:35;;;;;;;2.38;0.40;;;10.70;99.90;;;;;;6194678;23;20078;-89
2022/10/02 00:15:13;;;;;;;;;;;10.70;99.90;;;;;;6220413;23;20016;-88
2022/10/02 00:17:40;;;;;;;;;;;10.80;99.90;;;;;;6195096;23;19923;-88
2022/10/02 00:20:17;;;;;;;0.00;0.00;;;10.80;99.90;;;;;;6195034;23;20236;-88
2022/10/02 00:23:04;;;;;;;0.50;0.50;;;10.80;99.90;;;;;;6194635;23;20047;-88
2022/10/02 00:26:02;;;;;;;0.20;0.20;;;10.80;99.90;;;;;;6219796;23;20087;-91
2022/10/02 00:28:34;;;;;;;0.17;0.17;;;10.80;99.90;;;;;;6220139;23;20027;-88
2022/10/02 00:31:08;;;;;;;0.50;0.28;;;10.80;99.90;;;;;;6219491;23;20020;-88
2022/10/02 00:33:51;;;;;;;0.52;0.28;;;10.80;99.90;;;;;;6219389;23;20013;-89
2022/10/02 00:36:34;;;;;;;0.30;0.30;;;10.80;99.90;;;;;;6194778;23;20028;-88
2022/10/02 00:39:26;;;;;;;0.00;0.00;;;10.90;99.90;;;;;;6219504;23;20096;-88
2022/10/02 00:42:17;;;;;;;0.47;0.30;;;10.80;99.90;;;;;;6194319;23;20081;-88
2022/10/02 00:45:04;;;;;;;0.00;0.00;;;10.90;99.90;;;;;;6194268;23;20376;-88
2022/10/02 00:48:11;;;;;;;0.32;0.32;;;10.80;99.90;;;;;;6219818;23;20012;-88
2022/10/02 00:50:58;;;;;;;0.10;0.10;;;10.80;99.90;;;;;;6070087;23;20087;-88
2022/10/02 00:54:02;;;;;;;0.15;0.15;;;10.80;99.90;;;;;;6070595;23;20324;-88
2022/10/02 00:56:58;;;;;;;0.28;0.28;;;10.90;99.90;;;;;;6177869;23;20070;-88
2022/10/02 00:59:28;;;;;;;0.22;0.20;;;10.80;99.90;;;;;;6194727;23;20085;-88
2022/10/02 01:02:26;;;;;;;0.10;0.10;;;10.80;99.90;;;;;;6219210;23;20020;-88
2022/10/02 01:04:53;;;;;;;0.10;0.10;;;10.80;99.90;;;;;;6215319;23;20039;-88
2022/10/02 01:07:19;;;;;;;0.10;0.10;;;10.70;99.90;;;;;;6194211;23;20020;-88
2022/10/02 01:09:45;;;;;;;0.47;0.07;;;10.80;99.90;;;;;;6194095;23;20020;-88
2022/10/02 01:12:13;;;;;;;0.35;0.20;;;10.70;99.90;;;;;;6194333;23;20055;-89
2022/10/02 01:14:42;;;;;;;0.00;0.00;;;10.70;99.90;;;;;;6193828;23;20016;-88
2022/10/02 01:17:23;;;;;;;0.10;0.10;;;11.00;99.90;;;;;;6218942;23;20099;-89
2022/10/02 01:19:49;;;;;;;0.30;0.10;;;10.70;99.90;;;;;;6218645;23;20016;-89
2022/10/02 01:22:47;;;;;;;1.17;0.00;;;10.60;99.90;;;;;;6194353;23;20074;-89
2022/10/02 01:25:13;;;;;;;0.10;0.10;;;10.70;99.90;;;;;;6156989;23;20016;-89
2022/10/02 01:27:39;;;;;;;0.05;0.03;;;10.70;99.90;;;;;;6193516;23;20019;-89
2022/10/02 01:30:12;;;;;;;0.50;0.30;;;10.70;99.90;;;;;;6169544;23;20066;-89
2022/10/02 01:33:00;;;;;;;0.10;0.10;;;10.70;99.90;;;;;;6218038;23;20012;-91
2022/10/02 01:35:33;;;;;;;0.10;0.10;;;10.70;99.90;;;;;;6219144;23;20012;-88
2022/10/02 01:38:23;;;;;;;0.30;0.10;;;10.70;99.90;;;;;;6218722;23;20357;-89
2022/10/02 01:40:49;;;;;;;0.10;0.10;;;10.70;99.90;;;;;;6193700;23;20051;-89
2022/10/02 01:43:17;;;;;;;0.37;0.37;;;10.80;99.90;;;;;;6194165;23;20075;-88
2022/10/02 01:46:05;;;;;;;0.20;0.20;;;10.70;99.90;;;;;;6218625;23;20572;-89
2022/10/02 01:48:44;;;;;;;0.20;0.10;;;10.80;99.90;;;;;;6219250;23;20016;-88
2022/10/02 01:51:29;;;;;;;0.00;0.00;;;10.80;99.90;;;;;;6219383;23;20020;-88
2022/10/02 01:54:04;;;;;;;0.30;0.17;;;10.80;99.90;;;;;;6193255;23;20018;-88
2022/10/02 01:56:56;;;;;;;0.13;0.13;;;11.40;99.90;;;;;;6194336;23;20023;-89
2022/10/02 01:59:37;;;;;;;0.00;0.00;;;10.90;99.90;;;;;;6148766;23;20027;-89
2022/10/02 02:02:50;;;;;;;0.03;0.03;;;10.90;99.90;;;;;;6218667;23;20444;-89
2022/10/02 02:05:21;;;;;;;0.00;0.00;;;10.80;99.90;;;;;;6219200;23;20016;-89
2022/10/02 02:07:54;;;;;;;0.10;0.10;;;10.90;99.90;;;;;;6218154;23;20397;-89
2022/10/02 02:10:43;;;;;;;0.10;0.10;;;10.90;99.90;;;;;;6193731;23;20027;-88
2022/10/02 02:13:50;;;;;;;0.15;0.10;;;10.90;99.90;;;;;;6219117;23;20508;-88
2022/10/02 02:16:22;;;;;;;0.20;0.20;;;11.00;99.90;;;;;;6160740;23;20075;-88
2022/10/02 02:18:54;;;;;;;0.10;0.10;;;11.00;99.90;;;;;;6218559;23;20023;-89
2022/10/02 02:21:26;;;;;;;0.20;0.20;;;10.90;99.90;;;;;;6218948;23;20012;-88
2022/10/02 02:23:54;;;;;;;0.22;0.00;;;10.90;99.90;;;;;;6218468;23;20070;-89
2022/10/02 02:26:23;;;;;;;0.32;0.13;;;10.90;99.90;;;;;;6219174;23;20016;-89
2022/10/02 02:28:53;;;;;;;0.10;0.10;;;10.90;99.90;;;;;;6193462;23;20019;-89
2022/10/02 02:31:29;;;;;;;0.10;0.10;;;10.80;99.90;;;;;;6193873;23;20099;-88
2022/10/02 02:33:59;;;;;;;0.20;0.20;;;10.80;99.90;;;;;;6193352;23;20337;-88
2022/10/02 02:36:39;;;;;;;2.65;0.28;;;10.80;99.90;;;;;;6193687;23;20020;-89
2022/10/02 02:39:18;;;;;;;0.63;0.30;;;10.80;99.90;;;;;;6218401;23;20016;-89
2022/10/02 02:41:50;;;;;;;0.10;0.10;;;10.80;99.90;;;;;;6193749;23;20016;-88
2022/10/02 02:44:26;;;;;;;0.00;0.00;;;10.80;99.90;;;;;;6219120;23;20413;-89
2022/10/02 02:47:09;;;;;;;0.10;0.10;;;10.80;99.90;;;;;;6218264;23;20392;-89
2022/10/02 02:50:00;;;;;;;0.10;0.10;;;10.10;99.90;;;;;;6193670;23;20094;-89
2022/10/02 02:52:36;;;;;;;0.20;0.10;;;10.70;99.90;;;;;;6193556;23;20098;-89
2022/10/02 02:55:21;;;;;;;1.65;0.10;;;10.70;99.90;;;;;;6217958;23;20020;-89
2022/10/02 02:58:12;;;;;;;1.38;0.20;;;10.70;99.90;;;;;;6218551;23;20020;-89
2022/10/02 03:00:38;;;;;;;0.00;0.00;;;10.70;99.90;;;;;;6218300;23;20023;-89
2022/10/02 03:03:04;;;;;;;0.00;0.00;;;10.70;99.90;;;;;;6193211;23;20020;-89
2022/10/02 03:05:31;;;;;;;0.20;0.20;;;10.70;99.90;;;;;;6193605;23;20053;-89
2022/10/02 03:08:03;;;;;;;0.13;0.13;;;10.70;99.90;;;;;;6217642;23;20354;-89
2022/10/02 03:10:55;;;;;;;0.10;0.10;;;10.70;99.90;;;;;;6193697;23;20074;-89
2022/10/02 03:13:42;;;;;;;0.00;0.00;;;10.70;99.90;;;;;;6138280;23;20103;-89
2022/10/02 03:16:21;;;;;;;0.20;0.10;;;10.70;99.90;;;;;;6192960;23;20383;-89
2022/10/02 03:18:59;;;;;;;0.13;0.13;;;10.80;99.90;;;;;;6218541;23;20020;-89
2022/10/02 03:21:44;;;;;;;0.00;0.00;;;10.80;99.90;;;;;;6193942;23;20348;-89
2022/10/02 03:24:17;;;;;;;0.20;0.20;;;10.80;99.90;;;;;;6218150;23;20016;-89
2022/10/02 03:26:58;;;;;;;0.40;0.30;;;10.90;99.90;;;;;;6218353;23;20012;-89
2022/10/02 03:29:39;;;;;;;0.20;0.20;;;10.80;99.90;;;;;;6243982;23;20016;-89
2022/10/02 03:32:07;;;;;;;0.20;0.20;;;10.90;99.90;;;;;;6192618;23;20099;-89
2022/10/02 03:34:35;;;;;;;0.20;0.15;;;10.90;99.90;;;;;;6218295;23;20404;-89
2022/10/02 03:37:01;;;;;;;0.10;0.10;;;10.90;99.90;;;;;;6192516;23;20463;-88
2022/10/02 03:39:27;;;;;;;0.88;0.20;;;11.00;99.90;;;;;;6218366;23;20464;-88
2022/10/02 03:41:53;;;;;;;0.13;0.13;;;11.00;99.90;;;;;;6168448;23;20012;-89
2022/10/02 03:44:19;;;;;;;0.40;0.13;;;11.00;99.90;;;;;;6192907;23;20306;-89
2022/10/02 03:46:44;;;;;;;0.10;0.10;;;11.00;99.90;;;;;;6217952;23;20047;-89
2022/10/02 03:49:10;;;;;;;0.17;0.13;;;11.00;99.90;;;;;;6192859;23;20249;-89
2022/10/02 03:51:36;;;;;;;0.40;0.20;;;11.00;99.90;;;;;;6168577;23;20027;-89
2022/10/02 03:54:02;;;;;;;0.10;0.10;;;11.00;99.90;;;;;;6168152;23;20083;-88
2022/10/02 03:56:44;;;;;;;0.03;0.03;;;11.00;99.90;;;;;;6218340;23;20013;-89
2022/10/02 03:59:32;;;;;;;0.10;0.10;;;11.00;99.90;;;;;;6192679;23;20056;-89
2022/10/02 04:02:00;;;;;;;0.00;0.00;;;11.00;99.90;;;;;;6218359;23;20016;-90
2022/10/02 04:04:36;;;;;;;0.10;0.10;;;10.90;99.90;;;;;;6169096;23;20023;-89
2022/10/02 04:07:10;;;;;;;0.28;0.28;;;10.90;99.90;;;;;;6218398;23;20372;-89
2022/10/02 04:09:42;;;;;;;0.00;0.00;;;10.90;99.90;;;;;;6220423;23;20074;-89
2022/10/02 04:12:15;;;;;;;0.10;0.10;;;10.90;99.90;;;;;;6219603;23;20047;-89
2022/10/02 04:14:54;;;;;;;0.10;0.10;;;10.90;99.90;;;;;;6220061;23;20322;-89
2022/10/02 04:17:46;;;;;;;1.80;0.15;;;10.90;99.90;;;;;;6219572;23;20429;-88
2022/10/02 04:20:32;;;;;;;0.10;0.10;;;10.80;99.90;;;;;;6219568;23;20012;-89
2022/10/02 04:23:06;;;;;;;1.15;0.47;;;10.80;99.90;;;;;;6195019;23;20016;-89
2022/10/02 04:25:38;;;;;;;0.00;0.00;;;10.80;99.90;;;;;;6220444;23;20016;-88
2022/10/02 04:28:13;;;;;;;0.32;0.10;;;10.70;99.90;;;;;;6194602;23;20016;-89
2022/10/02 04:30:39;;;;;;;0.10;0.10;;;10.70;99.90;;;;;;6194900;23;20020;-89
2022/10/02 04:33:21;;;;;;;0.10;0.10;;;10.70;99.90;;;;;;6144913;23;20016;-89
2022/10/02 04:36:10;;;;;;;0.03;0.00;;;10.70;99.90;;;;;;6220244;23;20016;-89
2022/10/02 04:39:06;;;;;;;0.00;0.00;;;10.70;99.90;;;;;;6194846;23;20344;-89
2022/10/02 04:41:34;;;;;;;0.00;0.00;;;10.70;99.90;;;;;;6194780;23;20020;-88
2022/10/02 04:44:20;;;;;;;0.10;0.10;;;10.60;99.90;;;;;;6219767;23;20074;-88
2022/10/02 04:47:23;;;;;;;0.00;0.00;;;10.60;99.90;;;;;;6219892;23;20441;-89
2022/10/02 04:50:00;;;;;;;0.10;0.10;;;10.60;99.90;;;;;;6194709;23;20016;-89
2022/10/02 04:52:59;;;;;;;0.00;0.00;;;10.50;99.90;;;;;;6219347;23;20024;-89
2022/10/02 04:55:36;;;;;;;0.20;0.10;;;10.50;99.90;;;;;;6219247;23;20016;-88
2022/10/02 04:58:19;;;;;;;0.00;0.00;;;10.50;99.90;;;;;;6219891;23;20012;-89
2022/10/02 05:00:54;;;;;;;0.00;0.00;;;10.80;99.90;;;;;;6194294;23;20019;-89
2022/10/02 05:03:23;;;;;;;0.00;0.00;;;10.50;99.90;;;;;;6219191;23;20023;-89
2022/10/02 05:06:14;;;;;;;0.00;0.00;;;10.50;99.90;;;;;;6194287;23;20016;-88
2022/10/02 05:08:46;;;;;;;0.00;0.00;;;10.40;99.90;;;;;;6194879;23;20102;-88
2022/10/02 05:11:41;;;;;;;0.13;0.10;;;10.40;99.90;;;;;;6194305;23;20346;-89
2022/10/02 05:14:19;;;;;;;0.17;0.17;;;10.40;99.90;;;;;;6194568;23;20020;-90
2022/10/02 05:17:07;;;;;;;0.10;0.05;;;10.40;99.90;;;;;;6194036;23;20020;-89
2022/10/02 05:19:58;;;;;;;0.00;0.00;;;10.30;99.90;;;;;;6219085;23;20062;-89
2022/10/02 05:22:38;;;;;;;0.70;0.05;;;10.30;99.90;;;;;;6194098;23;20074;-89
2022/10/02 05:25:33;;;;;;;0.10;0.10;;;10.30;99.90;;;;;;6194531;23;20437;-89
2022/10/02 05:28:08;;;;;;;0.10;0.00;;;10.30;99.90;;;;;;6219704;23;20020;-89
2022/10/02 05:30:47;;;;;;;0.03;0.03;;;10.30;99.90;;;;;;6193981;23;20024;-89
2022/10/02 05:33:31;;;;;;;0.00;0.00;;;10.30;99.90;;;;;;6219090;23;20445;-89
2022/10/02 05:36:28;;;;;;;0.00;0.00;;;10.30;99.90;;;;;;6194316;23;20024;-87
2022/10/02 05:39:07;;;;;;;0.00;0.00;;;10.20;99.90;;;;;;6194328;23;20017;-89
2022/10/02 05:42:12;;;;;;;0.00;0.00;;;10.20;99.90;;;;;;6193421;23;20081;-89
2022/10/02 05:44:47;;;;;;;0.47;0.47;;;10.20;99.90;;;;;;6219720;23;20016;-88
2022/10/02 05:47:26;;;;;;;0.30;0.00;;;10.20;99.90;;;;;;6193737;23;20083;-89
2022/10/02 05:49:57;;;;;;;0.10;0.00;;;10.10;99.90;;;;;;6194540;23;20467;-88
2022/10/02 05:52:33;;;;;;;0.13;0.10;;;10.10;99.90;;;;;;6193736;23;20012;-88
2022/10/02 05:55:11;;;;;;;0.00;0.00;;;10.10;99.90;;;;;;6219164;23;20496;-89
2022/10/02 05:57:40;;;;;;;;;;;10.10;99.90;;;;;;6219126;23;20024;-89
2022/10/02 06:00:25;;;;;;;0.20;0.10;;;10.10;99.90;;;;;;6219010;23;19916;-89
2022/10/02 06:03:06;;;;;;;3.33;0.30;;;10.10;99.90;;;;;;6194212;23;20504;-89
2022/10/02 06:05:47;;;;;;;0.00;0.00;;;9.60;99.90;;;;;;6218567;23;20027;-89
2022/10/02 06:08:20;;;;;;;0.10;0.10;;;10.10;99.90;;;;;;6219003;23;20027;-89
2022/10/02 06:10:50;;;;;;;0.00;0.00;;;10.10;99.90;;;;;;6194374;23;20019;-89
2022/10/02 06:13:21;;;;;;;0.00;0.00;;;10.20;99.90;;;;;;6218505;23;20090;-89
2022/10/02 06:16:04;;;;;;;0.10;0.10;;;10.20;99.90;;;;;;6218577;23;20047;-89
2022/10/02 06:18:32;;;;;;;0.13;0.13;;;10.30;99.90;;;;;;6218524;23;20051;-89
2022/10/02 06:21:28;;;;;;;0.10;0.10;;;10.30;99.90;;;;;;6193862;23;20020;-89
2022/10/02 06:23:59;;;;;;;0.43;0.10;;;10.30;99.90;;;;;;6192656;23;20464;-89
2022/10/02 06:26:38;;;;;;;0.10;0.10;;;10.40;99.90;;;;;;6193357;23;20103;-89
2022/10/02 06:29:15;;;;;;;0.00;0.00;;;10.40;99.90;;;;;;6193510;23;20020;-87
2022/10/02 06:32:23;;;;;;;0.00;0.00;;;10.40;99.90;;;;;;6244286;23;20394;-86
2022/10/02 06:34:49;;;;;;;0.00;0.00;;;10.50;99.90;;;;;;6068625;23;20049;-86
2022/10/02 06:37:32;;;;;;;0.00;0.00;;;10.50;99.90;;;;;;6068994;23;20037;-86
2022/10/02 06:40:16;;;;;;;0.05;0.05;;;10.60;99.90;;;;;;6143311;23;20058;-87
2022/10/02 06:43:04;;;;;;;0.05;0.05;;;10.70;99.90;;;;;;6193333;23;20020;-87
2022/10/02 06:45:44;;;;;;;;;;;10.70;99.90;;;;;;6245497;23;20019;-86
2022/10/02 06:48:37;;;;;;;0.10;0.10;;;10.80;99.90;;;;;;6217483;23;20290;-87
2022/10/02 06:51:40;;;;;;;0.28;0.10;;;11.20;99.90;;;;;;6193828;23;20081;-87
2022/10/02 06:54:18;;;;;;;0.00;0.00;;;11.60;99.90;;;;;;6218746;23;20024;-87
2022/10/02 06:56:58;;;;;;;0.00;0.00;;;11.90;99.90;;;;;;6193220;23;20020;-86
2022/10/02 06:59:45;;;;;;;0.10;0.00;;;12.30;99.90;;;;;;6191996;23;20020;-86
2022/10/02 07:02:39;;;;;;;1.35;0.20;;;12.60;99.90;;;;;;6193122;23;20019;-86
2022/10/02 07:05:23;;;;;;;0.10;0.10;;;12.90;99.90;;;;;;6193724;23;20070;-87
2022/10/02 07:08:10;;;;;;;0.20;0.20;;;13.10;99.90;;;;;;6218475;23;20019;-87
2022/10/02 07:10:42;;;;;;;0.10;0.00;;;13.20;99.90;;;;;;6193020;23;20345;-87
2022/10/02 07:13:42;;;;;;;0.10;0.10;;;13.10;99.90;;;;;;6218581;23;20380;-87
2022/10/02 07:16:29;;;;;;;0.10;0.10;;;13.10;99.90;;;;;;6218382;23;20020;-87
2022/10/02 07:19:17;;;;;;;0.00;0.00;;;13.20;99.90;;;;;;6193581;23;20464;-87
2022/10/02 07:22:17;;;;;;;0.13;0.05;;;13.40;99.90;;;;;;6192318;23;20447;-87
2022/10/02 07:24:57;;;;;;;0.00;0.00;;;13.20;99.90;;;;;;6242820;23;20020;-87
2022/10/02 07:27:43;;;;;;;0.03;0.03;;;13.10;99.90;;;;;;6218658;23;20101;-87
2022/10/02 07:30:11;;;;;;;0.50;0.35;;;13.00;99.90;;;;;;6193660;23;20016;-87
2022/10/02 07:32:48;;;;;;;0.20;0.03;;;12.80;99.90;;;;;;6192906;23;20113;-88
2022/10/02 07:35:29;;;;;;;0.08;0.08;;;12.70;99.90;;;;;;6192469;23;20016;-88
2022/10/02 07:38:12;;;;;;;0.10;0.10;;;12.60;99.90;;;;;;6218728;23;20016;-87
2022/10/02 07:41:05;;;;;;;0.03;0.03;;;12.50;99.90;;;;;;6217623;23;20095;-87
2022/10/02 07:43:39;;;;;;;0.00;0.00;;;12.50;99.90;;;;;;6220142;23;20012;-86
2022/10/02 07:46:20;;;;;;;0.05;0.05;;;12.40;99.90;;;;;;6193813;23;20017;-86
2022/10/02 07:49:03;;;;;;;0.10;0.10;;;12.30;99.90;;;;;;6220277;23;20055;-84
2022/10/02 07:51:48;;;;;;;0.10;0.10;;;12.30;99.90;;;;;;6220235;23;20012;-84
2022/10/02 07:54:17;;;;;;;0.20;0.20;;;12.20;99.90;;;;;;6246965;23;20114;-85
2022/10/02 07:56:44;;;;;;;0.30;0.13;;;12.10;99.90;;;;;;6219805;23;20020;-81
2022/10/02 07:59:15;;;;;;;0.00;0.00;;;12.00;99.90;;;;;;6247075;23;20016;-85
2022/10/02 08:01:42;;;;;;;0.00;0.00;;;12.00;99.90;;;;;;6218975;23;20017;-86
2022/10/02 08:04:22;;;;;;;0.00;0.00;;;12.20;99.90;;;;;;6194927;23;20012;-86
2022/10/02 08:06:52;;;;;;;0.00;0.00;;;12.50;99.90;;;;;;6218367;23;20096;-86
2022/10/02 08:09:34;;;;;;;0.00;0.00;;;12.90;99.90;;;;;;6220310;23;20016;-88
2022/10/02 08:12:11;;;;;;;0.03;0.03;;;13.30;99.90;;;;;;6219685;23;20154;-86
2022/10/02 08:14:40;;;;;;;0.00;0.00;;;13.50;99.90;;;;;;6219696;23;20020;-86
2022/10/02 08:17:28;;;;;;;0.35;0.20;;;13.50;99.90;;;;;;6195233;23;20472;-85
2022/10/02 08:20:02;;;;;;;0.10;0.10;;;13.40;99.90;;;;;;6194064;23;20023;-84
2022/10/02 08:22:46;;;;;;;0.13;0.13;;;13.30;99.90;;;;;;6218595;23;20094;-85
2022/10/02 08:25:29;;;;;;;0.43;0.43;;;13.50;99.90;;;;;;6219766;23;20020;-86
2022/10/02 08:28:02;;;;;;;0.20;0.10;;;13.80;99.90;;;;;;6219521;23;20016;-86
2022/10/02 08:30:28;;;;;;;0.10;0.10;;;13.80;99.90;;;;;;6194450;23;20075;-86
2022/10/02 08:32:54;;;;;;;0.00;0.00;;;13.90;99.90;;;;;;6169081;23;20095;-86
2022/10/02 08:35:20;;;;;;;0.20;0.20;;;14.00;99.90;;;;;;6219722;23;20051;-87
2022/10/02 08:38:11;;;;;;;;;;;14.20;99.90;;;;;;6169065;23;20020;-85
2022/10/02 08:40:55;;;;;;;0.05;0.05;;;14.40;99.90;;;;;;6193583;23;19926;-87
2022/10/02 08:43:45;;;;;;;0.03;0.03;;;14.60;99.90;;;;;;6219781;23;20020;-87
2022/10/02 08:46:36;;;;;;;0.00;0.00;;;14.80;99.90;;;;;;6219652;23;20023;-86
2022/10/02 08:49:20;;;;;;;0.03;0.03;;;15.00;99.90;;;;;;6220221;23;20483;-87
2022/10/02 08:52:08;;;;;;;0.80;0.20;;;15.10;99.90;;;;;;6218716;23;20095;-86
2022/10/02 08:55:08;;;;;;;0.60;0.60;;;15.30;99.90;;;;;;6194317;23;20012;-86
2022/10/02 08:57:52;;;;;;;0.10;0.10;;;15.30;99.90;;;;;;6194147;23;20019;-86
2022/10/02 09:00:20;;;;;;;1.73;0.17;;;15.20;99.90;;;;;;6219699;23;20345;-86
2022/10/02 09:03:15;;;;;;;0.00;0.00;;;14.50;99.90;;;;;;6217984;23;20068;-86
2022/10/02 09:06:08;;;;;;;0.20;0.10;;;15.20;99.90;;;;;;6218985;23;20375;-87
2022/10/02 09:08:56;;;;;;;0.00;0.00;;;15.20;99.90;;;;;;6193690;23;20318;-86
2022/10/02 09:11:34;;;;;;;0.22;0.20;;;15.10;99.90;;;;;;6193662;23;20047;-87
2022/10/02 09:14:25;;;;;;;0.10;0.10;;;15.10;99.90;;;;;;6219071;23;20221;-87
2022/10/02 09:17:31;;;;;;;0.10;0.10;;;15.10;99.90;;;;;;6193952;23;20020;-87
2022/10/02 09:20:18;;;;;;;0.25;0.25;;;15.20;99.90;;;;;;6218056;23;20012;-86
2022/10/02 09:23:11;;;;;;;0.13;0.13;;;15.30;99.90;;;;;;6193627;23;20078;-87
2022/10/02 09:25:57;;;;;;;0.10;0.10;;;15.50;99.90;;;;;;6194398;23;20469;-86
2022/10/02 09:28:32;;;;;;;0.17;0.17;;;15.60;99.90;;;;;;6219033;23;20012;-86
2022/10/02 09:31:17;;;;;;;2.50;0.20;;;15.60;99.90;;;;;;6195759;23;20024;-86
2022/10/02 09:34:33;;;;;;;0.98;0.20;;;15.40;99.90;;;;;;6193079;23;20340;-93
2022/10/02 09:37:23;;;;;;;0.32;0.30;;;15.20;99.90;;;;;;6218623;23;20076;-85
2022/10/02 09:40:19;;;;;;;0.17;0.17;;;15.00;99.90;;;;;;6244275;23;20016;-86
2022/10/02 09:43:16;;;;;;;0.10;0.10;;;14.80;99.90;;;;;;6218466;23;20012;-94
2022/10/02 09:46:12;;;;;;;0.60;0.32;;;14.70;99.90;;;;;;6219518;23;20016;-85
2022/10/02 09:49:12;;;;;;;0.10;0.10;;;14.60;99.90;;;;;;6194051;23;20016;-85
2022/10/02 09:51:50;;;;;;;0.10;0.10;;;14.50;99.90;;;;;;6219077;23;20020;-85
2022/10/02 09:54:37;;;;;;;0.03;0.03;;;14.40;99.90;;;;;;6193397;23;20028;-85
2022/10/02 09:57:16;;;;;;;0.20;0.20;;;14.50;99.90;;;;;;6217474;23;20016;-84
2022/10/02 10:00:10;;;;;;;0.10;0.10;;;14.70;99.90;;;;;;6194584;23;20055;-85
2022/10/02 10:03:14;;;;;;;0.25;0.25;;;14.90;99.90;;;;;;6194089;23;20016;-85
2022/10/02 10:05:39;;;;;;;0.00;0.00;;;15.20;99.90;;;;;;6193681;23;20404;-85
2022/10/02 10:08:33;;;;;;;0.67;0.57;;;15.60;99.90;;;;;;6217599;23;20016;-85
2022/10/02 10:11:29;;;;;;;0.47;0.35;;;15.80;99.90;;;;;;6193436;23;20031;-85
2022/10/02 10:13:59;;;;;;;0.47;0.13;;;15.90;99.90;;;;;;6217630;23;20017;-85
2022/10/02 10:17:12;;;;;;;0.17;0.13;;;15.80;99.90;;;;;;6193595;23;20321;-85
2022/10/02 10:20:15;;;;;;;0.05;0.05;;;15.70;99.90;;;;;;6126078;23;20058;-85
2022/10/02 10:23:06;;;;;;;0.00;0.00;;;15.50;99.90;;;;;;6193669;23;20016;-85
2022/10/02 10:25:49;;;;;;;0.00;0.00;;;15.30;99.90;;;;;;6219008;23;20020;-85
2022/10/02 10:28:32;;;;;;;0.08;0.08;;;15.20;99.90;;;;;;6193172;23;20503;-85
2022/10/02 10:31:16;;;;;;;0.03;0.03;;;15.10;99.90;;;;;;6193141;23;20363;-87
2022/10/02 10:34:01;;;;;;;0.00;0.00;;;15.20;99.90;;;;;;6193149;23;20059;-86
2022/10/02 10:39:32;;;;;;;0.52;0.13;;;15.70;99.90;;;;;;6218747;23;20031;-84
2022/10/02 10:42:12;;;;;;;0.20;0.20;;;16.00;99.90;;;;;;6192686;23;20020;-84
2022/10/02 10:44:59;;;;;;;0.00;0.00;;;16.20;99.90;;;;;;6216952;23;20027;-85
2022/10/02 10:47:33;;;;;;;0.20;0.20;;;16.30;99.90;;;;;;6218749;23;20376;-85
2022/10/02 10:50:23;;;;;;;0.15;0.10;;;16.40;99.90;;;;;;6192597;23;20331;-83
2022/10/02 10:53:12;;;;;;;0.05;0.05;;;16.60;99.90;;;;;;6218595;23;20459;-83
2022/10/02 10:56:06;;;;;;;0.10;0.10;;;16.70;99.90;;;;;;6193578;23;20071;-83
2022/10/02 10:58:50;;;;;;;0.47;0.17;;;16.90;99.90;;;;;;6245373;23;20095;-83
2022/10/02 11:01:22;;;;;;;0.00;0.00;;;16.80;99.90;;;;;;6192879;23;20060;-84
2022/10/02 11:04:07;;;;;;;0.03;0.03;;;16.60;99.90;;;;;;6168238;23;20073;-83
2022/10/02 11:06:36;;;;;;;0.63;0.10;;;16.30;99.90;;;;;;6192911;23;20063;-83
2022/10/02 11:09:25;;;;;;;0.15;0.10;;;16.10;99.90;;;;;;6192679;23;20056;-83
2022/10/02 11:12:31;;;;;;;0.10;0.10;;;15.90;99.90;;;;;;6217919;23;20027;-83
2022/10/02 11:15:19;;;;;;;0.70;0.10;;;15.70;99.90;;;;;;6217918;23;20024;-89
2022/10/02 11:18:11;;;;;;;0.00;0.00;;;15.60;99.90;;;;;;6195268;23;20103;-84
2022/10/02 11:21:03;;;;;;;0.10;0.00;;;15.80;99.90;;;;;;6195118;23;20457;-84
2022/10/02 11:24:06;;;;;;;0.10;0.10;;;16.20;99.90;;;;;;6220626;23;20027;-83
2022/10/02 11:27:01;;;;;;;0.20;0.20;;;16.60;99.90;;;;;;6195796;23;20016;-84
2022/10/02 11:29:38;;;;;;;0.10;0.10;;;16.90;99.90;;;;;;6219186;23;20020;-84
2022/10/02 11:32:19;;;;;;;0.00;0.00;;;17.20;99.90;;;;;;6194028;23;20020;-84
2022/10/02 11:35:00;;;;;;;0.17;0.17;;;17.50;99.90;;;;;;6219266;23;20433;-83
2022/10/02 11:37:37;;;;;;;0.00;0.00;;;17.50;99.90;;;;;;6194395;23;20441;-83
2022/10/02 11:40:22;;;;;;;0.45;0.30;;;17.50;99.90;;;;;;6218492;23;20016;-84
2022/10/02 11:43:12;;;;;;;0.13;0.13;;;17.70;99.90;;;;;;6219445;23;20506;-83
2022/10/02 11:46:02;;;;;;;0.00;0.00;;;17.80;99.90;;;;;;6194017;23;20052;-83
2022/10/02 11:48:50;;;;;;;0.25;0.25;;;18.00;99.90;;;;;;6194718;23;20066;-83
2022/10/02 11:51:53;;;;;;;0.32;0.22;;;18.00;99.90;;;;;;6218063;23;20024;-83
2022/10/02 11:54:43;;;;;;;0.20;0.20;;;17.90;99.90;;;;;;6246540;23;20052;-83
2022/10/02 11:57:28;;;;;;;0.30;0.17;;;18.00;99.90;;;;;;6218968;23;20056;-83
2022/10/02 12:00:12;;;;;;;0.20;0.10;;;17.90;99.90;;;;;;6219964;23;20026;-82
2022/10/02 12:03:03;;;;;;;0.00;0.00;;;18.00;99.90;;;;;;6195491;23;20028;-80
2022/10/02 12:05:43;;;;;;;0.00;0.00;;;18.10;99.90;;;;;;6220071;23;20020;-84
2022/10/02 12:08:30;;;;;;;0.13;0.13;;;18.20;99.90;;;;;;6246084;23;20020;-91
2022/10/02 12:11:20;;;;;;;0.00;0.00;;;18.30;99.90;;;;;;6195335;23;20016;-83
2022/10/02 12:13:53;;;;;;;0.30;0.28;;;18.40;99.90;;;;;;6220131;23;20021;-83
2022/10/02 12:16:23;;;;;;;0.20;0.10;;;18.70;99.90;;;;;;6219503;23;20338;-84
2022/10/02 12:19:01;;;;;;;0.03;0.03;;;19.00;99.90;;;;;;6195151;23;20514;-83
2022/10/02 12:27:57;;;;;;;0.00;0.00;;;19.20;99.90;;;;;;6219181;23;20020;-86
2022/10/02 12:31:01;;;;;;;0.00;0.00;;;19.10;99.90;;;;;;6194617;23;20023;-86
2022/10/02 12:34:00;;;;;;;0.98;0.15;;;19.20;99.90;;;;;;6190556;23;20642;-86
2022/10/02 12:37:19;;;;;;;0.30;0.22;;;19.30;99.90;;;;;;6194352;23;20023;-85
2022/10/02 12:39:51;;;;;;;1.42;0.20;;;19.40;99.90;;;;;;6088431;23;20158;-86
2022/10/02 12:42:48;;;;;;;0.00;0.00;;;19.30;99.90;;;;;;6194246;23;20113;-85
2022/10/02 12:45:19;;;;;;;0.52;0.17;;;19.50;99.90;;;;;;6219475;23;20024;-85
2022/10/02 12:48:04;;;;;;;0.00;0.00;;;19.50;99.90;;;;;;6194675;23;20058;-85
2022/10/02 12:50:53;;;;;;;0.00;0.00;;;19.20;99.90;;;;;;6219110;23;20452;-85
2022/10/02 12:53:43;;;;;;;0.00;0.00;;;19.00;99.90;;;;;;6178664;23;20445;-85
2022/10/02 12:56:11;;;;;;;1.88;0.03;;;19.00;99.90;;;;;;6219888;23;20061;-85
2022/10/02 12:58:43;;;;;;;0.20;0.00;;;19.10;99.90;;;;;;6194544;23;20020;-85
2022/10/02 13:01:43;;;;;;;0.22;0.10;;;19.00;99.90;;;;;;6194465;23;20449;-84
2022/10/02 13:04:17;;;;;;;0.10;0.10;;;19.00;99.90;;;;;;6219581;23;20387;-85
2022/10/02 13:07:02;;;;;;;0.43;0.05;;;19.00;99.90;;;;;;6194478;23;20016;-85
2022/10/02 13:09:48;;;;;;;0.20;0.20;;;19.10;99.90;;;;;;6193760;23;20031;-85
2022/10/02 13:12:31;;;;;;;0.10;0.10;;;19.20;99.90;;;;;;6194283;23;20073;-86
2022/10/02 13:15:22;;;;;;;0.08;0.08;;;19.20;99.90;;;;;;6219874;23;20016;-85
2022/10/02 13:18:26;;;;;;;0.20;0.00;;;19.30;99.90;;;;;;6194752;23;20399;-84
2022/10/02 13:21:05;;;;;;;0.17;0.17;;;19.30;99.90;;;;;;6070562;23;20058;-85
2022/10/02 13:23:43;;;;;;;1.45;0.10;;;19.20;99.90;;;;;;6204384;23;20404;-85
2022/10/02 13:26:12;;;;;;;0.10;0.10;;;19.10;99.90;;;;;;6195300;23;20016;-85
2022/10/02 13:29:04;;;;;;;0.00;0.00;;;19.10;99.90;;;;;;6193878;23;20020;-85
2022/10/02 13:31:49;;;;;;;0.35;0.00;;;19.20;99.90;;;;;;6193439;23;20053;-85
2022/10/02 13:34:28;;;;;;;0.00;0.00;;;19.50;99.90;;;;;;6219460;23;20340;-85
2022/10/02 13:37:15;;;;;;;0.20;0.20;;;19.60;99.90;;;;;;6220534;23;20060;-85
2022/10/02 13:40:00;;;;;;;0.50;0.28;;;19.70;99.90;;;;;;6193471;23;20020;-85
2022/10/02 13:43:15;;;;;;;0.00;0.00;;;20.00;99.90;;;;;;6193855;23;20058;-85
2022/10/02 13:45:53;;;;;;;0.00;0.00;;;20.00;99.90;;;;;;6218606;23;20070;-84
2022/10/02 13:48:58;;;;;;;0.00;0.00;;;20.00;99.90;;;;;;6192645;23;20016;-87
2022/10/02 13:51:35;;;;;;;0.20;0.17;;;19.90;99.90;;;;;;6192475;23;20142;-83
2022/10/02 13:54:16;;;;;;;0.73;0.20;;;20.00;99.90;;;;;;6194184;23;20448;-84
2022/10/02 13:56:44;;;;;;;0.22;0.20;;;19.80;99.90;;;;;;6243758;23;20016;-86
2022/10/02 13:59:53;;;;;;;0.10;0.10;;;19.70;99.90;;;;;;6219111;23;20420;-83
2022/10/02 14:02:19;;;;;;;;;;;19.60;99.90;;;;;;6068502;23;20468;-83
2022/10/02 14:04:51;;;;;;;0.10;0.10;;;19.60;99.90;;;;;;6201307;23;19923;-84
2022/10/02 14:07:38;;;;;;;0.70;0.10;;;19.60;99.90;;;;;;6218299;23;20293;-84
2022/10/02 14:10:19;;;;;;;0.20;0.20;;;19.70;99.90;;;;;;6244335;23;20027;-87
2022/10/02 14:13:01;;;;;;;0.10;0.10;;;19.70;99.90;;;;;;6192525;23;20016;-81
2022/10/02 14:15:40;;;;;;;1.00;0.10;;;19.80;99.90;;;;;;6218641;23;20039;-84